createdAt,value
2022-09-12T04:15:28.034Z,99100.66
2022-09-12T04:17:57.184Z,99064.69
2022-09-12T04:20:29.611Z,99100.91
2022-09-12T04:23:00.772Z,99049.38
2022-09-12T04:25:31.852Z,99101.25
2022-09-12T04:28:01.084Z,99115.47
2022-09-12T04:30:32.626Z,99076.88
2022-09-12T04:33:08.147Z,99058.34
2022-09-12T04:35:38.159Z,99104.22
2022-09-12T04:38:07.351Z,99095.56
2022-09-12T04:40:36.948Z,99096.84
2022-09-12T04:43:10.136Z,99058.94
2022-09-12T04:45:43.439Z,99091.50
2022-09-12T04:48:13.170Z,99075.09
2022-09-12T04:50:42.288Z,99094.84
2022-09-12T04:53:11.537Z,99096.72
2022-09-12T04:55:40.697Z,99073.22
2022-09-12T04:58:11.889Z,99088.16
2022-09-12T05:00:42.502Z,99062.56
2022-09-12T05:03:29.086Z,99036.09
2022-09-12T05:05:58.435Z,99070.03
2022-09-12T05:08:27.855Z,99051.19
2022-09-12T05:10:57.683Z,99070.03
2022-09-12T05:13:34.469Z,99089.59
2022-09-12T05:16:13.973Z,98961.91
2022-09-12T05:18:45.423Z,99103.63
2022-09-12T05:21:17.970Z,99127.72
2022-09-12T05:23:48.246Z,99122.09
2022-09-12T05:26:19.595Z,99118.63
2022-09-12T05:28:50.181Z,99109.22
2022-09-12T05:31:43.971Z,99015.25
2022-09-12T05:34:13.485Z,99058.63
2022-09-12T05:36:42.765Z,99096.66
2022-09-12T05:39:18.253Z,99112.16
2022-09-12T05:41:50.118Z,99108.06
2022-09-12T05:44:19.298Z,99135.00
2022-09-12T05:46:52.016Z,99115.03
2022-09-12T05:49:28.058Z,99142.75
2022-09-12T05:51:57.283Z,99133.47
2022-09-12T05:54:31.607Z,99141.63
2022-09-12T05:57:01.096Z,99143.91
2022-09-12T05:59:30.522Z,99154.19
2022-09-12T06:02:05.829Z,99125.66
2022-09-12T06:04:35.006Z,99113.25
2022-09-12T06:07:04.245Z,99112.91
2022-09-12T06:09:35.542Z,99151.88
2022-09-12T06:12:05.898Z,99153.84
2022-09-12T06:14:34.992Z,99143.03
2022-09-12T06:17:06.258Z,99148.84
2022-09-12T06:19:35.303Z,99142.22
2022-09-12T06:22:05.590Z,99140.69
2022-09-12T06:24:34.998Z,99136.31
2022-09-12T06:27:04.098Z,99145.25
2022-09-12T06:29:37.032Z,99143.44
2022-09-12T06:32:12.285Z,99109.19
2022-09-12T06:34:43.488Z,99177.00
2022-09-12T06:37:15.127Z,99144.88
2022-09-12T06:39:54.473Z,99082.28
2022-09-12T06:42:27.921Z,99064.44
2022-09-12T06:44:57.453Z,99158.81
2022-09-12T06:47:28.818Z,99181.50
2022-09-12T06:49:58.085Z,99141.78
2022-09-12T06:52:30.268Z,99175.59
2022-09-12T06:54:59.780Z,99036.41
2022-09-12T06:57:48.643Z,99083.97
2022-09-12T07:00:18.466Z,99110.97
2022-09-12T07:03:04.611Z,99194.47
2022-09-12T07:06:19.773Z,99055.47
2022-09-12T07:08:55.128Z,99157.91
2022-09-12T07:11:40.392Z,99070.16
2022-09-12T07:17:17.850Z,99171.44
2022-09-12T07:19:48.817Z,99153.28
2022-09-12T07:22:22.881Z,99274.44
2022-09-12T07:24:56.168Z,99172.63
2022-09-12T07:27:27.006Z,99307.69
2022-09-12T07:30:15.666Z,99278.16
2022-09-12T07:32:44.999Z,99271.44
2022-09-12T07:35:18.537Z,99304.25
2022-09-12T07:37:47.704Z,99312.34
2022-09-12T07:40:17.040Z,99319.81
2022-09-12T07:42:48.241Z,99306.06
2022-09-12T07:45:17.734Z,99315.91
2022-09-12T07:47:46.837Z,99294.34
2022-09-12T07:50:17.618Z,99346.53
2022-09-12T07:52:46.700Z,99354.59
2022-09-12T07:55:15.898Z,99358.81
2022-09-12T07:57:45.322Z,99348.91
2022-09-12T08:00:15.878Z,99320.22
2022-09-12T08:02:45.186Z,99344.91
2022-09-12T08:05:14.362Z,99280.47
2022-09-12T08:07:44.981Z,99371.78
2022-09-12T08:10:14.189Z,99371.78
2022-09-12T08:12:44.501Z,99380.47
2022-09-12T08:15:13.837Z,99312.66
2022-09-12T08:17:43.488Z,99375.59
2022-09-12T08:20:12.782Z,99360.84
2022-09-12T08:22:42.055Z,99319.00
2022-09-12T08:25:14.334Z,99306.25
2022-09-12T08:27:46.226Z,99370.69
